createdAt,value
2019-04-23T00:04:18.115Z,98660.30
2019-04-23T00:06:59.414Z,98664.95
2019-04-23T00:09:31.238Z,98664.95
2019-04-23T00:11:59.950Z,98666.77
2019-04-23T00:14:40.899Z,98666.77
2019-04-23T00:17:17.806Z,98674.20
2019-04-23T00:19:39.731Z,98672.26
2019-04-23T00:22:37.020Z,98672.26
2019-04-23T00:27:50.337Z,98674.05
2019-04-23T00:30:20.289Z,98681.84
2019-04-23T00:32:51.754Z,98681.84
2019-04-23T00:35:25.757Z,98685.34
2019-04-23T00:37:55.158Z,98672.55
2019-04-23T00:40:35.719Z,98687.98
2019-04-23T00:43:11.897Z,98689.53
2019-04-23T00:48:22.280Z,98683.40
2019-04-23T00:50:52.829Z,98691.88
2019-04-23T00:56:03.149Z,98689.53
2019-04-23T00:58:32.408Z,98696.69
2019-04-23T01:01:04.127Z,98691.71
2019-04-23T01:03:26.289Z,98698.67
2019-04-23T01:06:07.805Z,98698.67
2019-04-23T01:08:45.751Z,98701.34
2019-04-23T01:11:16.616Z,98711.75
2019-04-23T01:13:48.947Z,98704.38
2019-04-23T01:16:21.287Z,98704.64
2019-04-23T01:19:24.829Z,98704.64
2019-04-23T01:21:45.228Z,98702.77
2019-04-23T01:24:38.480Z,98710.02
2019-04-23T01:27:55.846Z,98710.02
2019-04-23T01:30:18.020Z,98705.80
2019-04-23T01:32:48.482Z,98705.80
2019-04-23T01:35:20.370Z,98708.77
2019-04-23T01:37:56.166Z,98717.78
2019-04-23T01:40:34.778Z,98712.95
2019-04-23T01:43:05.557Z,98711.77
2019-04-23T01:45:30.744Z,98715.42
2019-04-23T01:48:05.027Z,98713.80
2019-04-23T01:50:52.109Z,98713.80
2019-04-23T01:53:22.625Z,98710.78
2019-04-23T01:55:54.440Z,98714.48
2019-04-23T02:01:00.744Z,98714.97
2019-04-23T02:03:38.488Z,98715.39
2019-04-23T02:06:08.695Z,98718.33
2019-04-23T02:08:43.497Z,98718.33
2019-04-23T02:14:05.439Z,98729.37
2019-04-23T02:16:24.634Z,98724.16
2019-04-23T02:18:56.779Z,98724.16
2019-04-23T02:21:33.417Z,98725.72
2019-04-23T02:24:09.157Z,98725.72
2019-04-23T02:26:36.807Z,98725.72
2019-04-23T02:29:28.600Z,98725.76
2019-04-23T02:34:51.920Z,98754.88
2019-04-23T02:37:22.749Z,98754.88
2019-04-23T02:39:40.167Z,98754.05
2019-04-23T02:44:38.833Z,98751.36
2019-04-23T02:47:21.848Z,98750.97
2019-04-23T02:49:55.329Z,98750.97
2019-04-23T02:52:21.695Z,98759.18
2019-04-23T02:54:58.644Z,98767.47
2019-04-23T02:57:35.590Z,98769.00
2019-04-23T03:02:43.600Z,98775.11
2019-04-23T03:05:11.684Z,98780.91
2019-04-23T03:21:25.441Z,98786.22
2019-04-23T03:24:21.128Z,98793.36
2019-04-23T03:29:31.416Z,98811.81
2019-04-23T03:32:45.922Z,98808.42
2019-04-23T03:42:17.136Z,98815.23
2019-04-23T03:47:24.788Z,98820.09
2019-04-23T03:55:23.169Z,98829.77
2019-04-23T03:57:30.982Z,98831.62
2019-04-23T04:00:15.663Z,98835.14
2019-04-23T04:05:22.677Z,98834.52
2019-04-23T04:10:26.613Z,98847.99
2019-04-23T04:12:57.638Z,98847.99
2019-04-23T04:18:28.491Z,98842.31
2019-04-23T04:21:01.171Z,98851.89
2019-04-23T04:33:41.383Z,98859.25
2019-04-23T04:36:18.097Z,98862.05
2019-04-23T04:38:40.195Z,98862.05
2019-04-23T04:57:00.654Z,98857.70
2019-04-23T04:59:08.755Z,98853.48
2019-04-23T05:01:37.760Z,98853.48
2019-04-23T05:04:20.200Z,98861.75
2019-04-23T05:06:56.662Z,98862.27
2019-04-23T05:09:21.316Z,98861.13
2019-04-23T05:17:13.375Z,98867.55
2019-04-23T05:22:12.196Z,98868.77
2019-04-23T05:24:43.249Z,98864.86
2019-04-23T05:27:15.530Z,98864.86
2019-04-23T05:29:54.296Z,98859.78
2019-04-23T05:32:19.452Z,98857.91
2019-04-23T05:35:00.597Z,98857.91
2019-04-23T05:37:37.133Z,98853.66
2019-04-23T05:40:12.661Z,98853.66
2019-04-23T05:42:33.143Z,98846.03
2019-04-23T05:45:14.395Z,98844.02
2019-04-23T05:47:48.192Z,98842.13
2019-04-23T05:50:18.863Z,98837.94
2019-04-23T05:53:10.172Z,98837.94
2019-04-23T05:55:20.351Z,98839.09
2019-04-23T05:57:53.635Z,98839.09
2019-04-23T06:00:34.786Z,98837.04
2019-04-23T06:03:04.761Z,98824.47
2019-04-23T06:05:38.761Z,98824.47
2019-04-23T06:08:12.086Z,98828.96
2019-04-23T06:10:55.840Z,98813.28
2019-04-23T06:13:41.049Z,98813.28
2019-04-23T06:16:08.416Z,98816.56
2019-04-23T06:18:38.093Z,98814.47
2019-04-23T06:21:12.916Z,98809.72
2019-04-23T06:23:50.214Z,98815.16
2019-04-23T06:29:08.899Z,98802.25
2019-04-23T06:31:41.527Z,98809.62
2019-04-23T06:34:17.151Z,98803.67
2019-04-23T06:36:46.303Z,98796.42
2019-04-23T06:39:15.887Z,98796.42
2019-04-23T06:41:50.125Z,98794.63
2019-04-23T06:47:16.735Z,98789.48
2019-04-23T06:55:01.191Z,98785.95
2019-04-23T06:57:41.122Z,98772.84
2019-04-23T07:00:08.015Z,98772.84
2019-04-23T07:02:59.769Z,98773.66
2019-04-23T07:05:55.139Z,98772.53
2019-04-23T07:08:32.488Z,98772.53
2019-04-23T07:11:11.499Z,98759.73
2019-04-23T07:13:54.725Z,98759.73
2019-04-23T07:16:14.635Z,98752.33
2019-04-23T07:21:25.137Z,98747.16
2019-04-23T07:29:09.040Z,98730.73
2019-04-23T07:31:40.963Z,98728.92
2019-04-23T07:34:15.776Z,98728.92
2019-04-23T07:36:48.376Z,98727.78
2019-04-23T07:39:58.885Z,98723.77
2019-04-23T07:42:44.610Z,98719.69
2019-04-23T07:45:29.630Z,98712.39
2019-04-23T07:48:24.229Z,98708.70
2019-04-23T07:51:03.335Z,98699.90
2019-04-23T07:53:41.241Z,98699.90
2019-04-23T07:56:13.126Z,98700.25
2019-04-23T07:58:54.374Z,98694.71
2019-04-23T08:01:27.071Z,98683.70
2019-04-23T08:04:18.245Z,98683.70
2019-04-23T08:06:52.407Z,98684.22
2019-04-23T08:09:24.629Z,98676.59
2019-04-23T08:11:56.796Z,98672.19
2019-04-23T08:14:34.355Z,98673.13
2019-04-23T08:17:09.061Z,98661.82
2019-04-23T08:19:49.383Z,98661.82
2019-04-23T08:22:22.214Z,98655.95
2019-04-23T08:25:12.853Z,98657.47
2019-04-23T08:27:34.482Z,98648.66
2019-04-23T08:30:06.219Z,98646.52
2019-04-23T08:32:47.600Z,98646.52
2019-04-23T08:35:15.998Z,98639.94
2019-04-23T08:38:04.602Z,98638.38
2019-04-23T08:40:52.769Z,98639.94
2019-04-23T08:43:05.595Z,98634.53
2019-04-23T08:45:52.978Z,98631.67
2019-04-23T08:48:27.809Z,98635.33
2019-04-23T08:51:19.411Z,98632.41
2019-04-23T08:53:40.667Z,98632.41
2019-04-23T08:56:08.722Z,98629.84
2019-04-23T08:58:46.331Z,98624.16
2019-04-23T09:01:16.938Z,98625.63
2019-04-23T09:03:55.986Z,98605.62
2019-04-23T09:06:27.634Z,98608.75
2019-04-23T09:09:09.011Z,98608.75
2019-04-23T09:11:45.990Z,98593.70
2019-04-23T09:14:04.588Z,98593.70
2019-04-23T09:19:23.225Z,98593.66
2019-04-23T09:22:02.003Z,98587.14
2019-04-23T09:24:32.683Z,98587.14
2019-04-23T09:27:23.432Z,98581.58
2019-04-23T09:38:08.297Z,98564.39
2019-04-23T09:41:13.064Z,98557.83
2019-04-23T09:44:07.868Z,98557.83
2019-04-23T09:47:00.692Z,98558.39
2019-04-23T09:52:09.539Z,98552.68
2019-04-23T09:54:47.715Z,98551.93
2019-04-23T09:57:15.955Z,98551.93
2019-04-23T09:59:48.864Z,98546.86
2019-04-23T10:02:19.514Z,98546.86
2019-04-23T10:04:48.610Z,98545.19
2019-04-23T10:07:23.859Z,98542.30
2019-04-23T10:09:42.506Z,98542.30
2019-04-23T10:12:17.756Z,98531.56
2019-04-23T10:14:59.220Z,98534.42
2019-04-23T10:17:29.987Z,98540.13
2019-04-23T10:20:04.694Z,98533.52
2019-04-23T10:22:39.571Z,98534.13
2019-04-23T10:25:13.221Z,98534.13
2019-04-23T10:27:45.369Z,98533.06
2019-04-23T10:30:19.671Z,98529.10
2019-04-23T10:32:51.671Z,98523.18
2019-04-23T10:35:35.036Z,98523.18
2019-04-23T10:38:03.869Z,98518.03
2019-04-23T10:40:38.182Z,98519.55
2019-04-23T10:43:09.256Z,98523.25
2019-04-23T10:46:31.133Z,98523.25
2019-04-23T10:49:52.192Z,98524.83
2019-04-23T10:57:06.158Z,98523.95
2019-04-23T11:10:15.879Z,98518.24
2019-04-23T11:17:58.300Z,98520.95
2019-04-23T11:20:41.576Z,98521.97
2019-04-23T11:23:04.849Z,98532.70
2019-04-23T11:25:44.048Z,98527.92
2019-04-23T11:36:57.992Z,98526.09
2019-04-23T11:39:21.708Z,98530.67
2019-04-23T11:42:12.279Z,98531.22
2019-04-23T11:44:36.710Z,98538.48
2019-04-23T11:47:29.024Z,98539.05
2019-04-23T11:54:45.308Z,98538.70
2019-04-23T11:59:55.636Z,98537.87
2019-04-23T12:02:56.200Z,98538.19
2019-04-23T12:06:17.294Z,98538.19
2019-04-23T12:09:09.838Z,98540.13
2019-04-23T12:14:40.536Z,98537.73
2019-04-23T12:20:13.525Z,98534.42
2019-04-23T12:22:43.526Z,98534.21
2019-04-23T12:25:29.743Z,98544.42
2019-04-23T12:27:51.714Z,98535.89
2019-04-23T12:30:42.009Z,98535.89
2019-04-23T12:33:10.691Z,98541.61
2019-04-23T12:35:39.008Z,98547.30
2019-04-23T12:38:26.981Z,98547.30
2019-04-23T12:41:14.006Z,98549.86
2019-04-23T12:43:40.607Z,98555.07
2019-04-23T12:46:16.233Z,98555.07
2019-04-23T12:49:28.348Z,98555.38
2019-04-23T12:51:45.209Z,98558.27
2019-04-23T12:54:37.998Z,98562.91
2019-04-23T12:57:05.162Z,98572.12
2019-04-23T13:02:32.800Z,98576.83
2019-04-23T13:07:38.085Z,98574.60
2019-04-23T13:12:52.894Z,98579.22
2019-04-23T13:18:03.117Z,98585.22
2019-04-23T13:20:33.629Z,98588.29
2019-04-23T13:28:21.706Z,98597.05
2019-04-23T13:31:00.739Z,98600.56
2019-04-23T13:41:23.126Z,98613.02
2019-04-23T13:43:42.577Z,98625.52
2019-04-23T13:46:17.263Z,98625.52
2019-04-23T13:48:47.039Z,98629.70
2019-04-23T13:51:25.753Z,98627.84
2019-04-23T13:54:08.190Z,98633.71
2019-04-23T13:57:05.860Z,98633.71
2019-04-23T13:59:26.349Z,98635.99
2019-04-23T14:01:42.939Z,98641.81
2019-04-23T14:04:38.666Z,98641.81
2019-04-23T14:09:45.997Z,98644.89
2019-04-23T14:12:18.211Z,98644.89
2019-04-23T14:14:56.309Z,98645.52
2019-04-23T14:20:07.147Z,98658.32
2019-04-23T14:25:11.415Z,98665.88
2019-04-23T14:28:00.176Z,98666.06
2019-04-23T14:32:54.122Z,98673.42
2019-04-23T14:38:19.953Z,98678.59
2019-04-23T14:40:42.974Z,98677.53
2019-04-23T14:46:14.623Z,98681.68
2019-04-23T14:48:20.617Z,98690.25
2019-04-23T14:50:48.803Z,98695.11
2019-04-23T14:53:40.630Z,98695.11
2019-04-23T15:06:35.811Z,98719.16
2019-04-23T15:11:45.148Z,98714.84
2019-04-23T15:14:11.871Z,98721.24
2019-04-23T15:16:49.791Z,98713.55
2019-04-23T15:19:40.154Z,98722.74
2019-04-23T15:22:12.071Z,98721.59
2019-04-23T15:24:30.614Z,98725.10
2019-04-23T15:29:27.566Z,98728.89
2019-04-23T15:34:52.098Z,98731.85
2019-04-23T15:37:33.245Z,98731.85
2019-04-23T15:39:55.092Z,98738.16
2019-04-23T15:42:25.403Z,98739.78
2019-04-23T15:45:00.954Z,98737.59
2019-04-23T15:47:31.861Z,98737.59
2019-04-23T15:50:10.050Z,98739.88
2019-04-23T15:52:47.267Z,98749.38
2019-04-23T15:55:12.252Z,98753.44
2019-04-23T16:00:17.854Z,98752.93
2019-04-23T16:02:27.073Z,98759.05
2019-04-23T16:05:00.038Z,98759.05
2019-04-23T16:07:51.907Z,98752.30
2019-04-23T16:10:28.784Z,98752.30
2019-04-23T16:13:32.427Z,98756.39
2019-04-23T16:15:46.690Z,98754.03
2019-04-23T16:18:45.388Z,98758.05
2019-04-23T16:21:10.523Z,98760.97
2019-04-23T16:23:37.510Z,98760.97
2019-04-23T16:26:14.715Z,98764.77
2019-04-23T16:31:34.775Z,98761.38
2019-04-23T16:34:27.327Z,98767.23
2019-04-23T16:37:06.118Z,98772.11
2019-04-23T16:39:49.330Z,98774.28
2019-04-23T16:42:08.800Z,98774.28
2019-04-23T16:44:59.696Z,98779.55
2019-04-23T16:47:21.883Z,98781.81
2019-04-23T16:50:04.740Z,98791.57
2019-04-23T16:52:26.406Z,98787.16
2019-04-23T16:55:13.788Z,98786.52
2019-04-23T17:02:48.024Z,98784.25
2019-04-23T17:05:19.701Z,98784.25
2019-04-23T17:08:08.387Z,98790.58
2019-04-23T17:15:40.438Z,98784.16
2019-04-23T17:18:18.369Z,98787.81
2019-04-23T17:20:52.982Z,98781.20
2019-04-23T17:28:29.093Z,98781.58
2019-04-23T17:31:26.302Z,98781.58
2019-04-23T17:36:38.520Z,98778.34
2019-04-23T17:39:18.185Z,98778.34
2019-04-23T17:42:12.783Z,98772.84
2019-04-23T17:47:35.564Z,98778.94
2019-04-23T17:50:20.211Z,98778.94
2019-04-23T17:52:42.051Z,98773.68
2019-04-23T17:57:55.924Z,98775.02
2019-04-23T18:00:33.570Z,98787.71
2019-04-23T18:02:59.695Z,98778.53
2019-04-23T18:05:40.316Z,98778.53
2019-04-23T18:10:37.054Z,98785.42
2019-04-23T18:13:13.326Z,98778.20
2019-04-23T18:15:46.137Z,98780.23
2019-04-23T18:18:23.574Z,98783.05
2019-04-23T18:23:41.289Z,98783.36
2019-04-23T18:26:14.195Z,98785.10
2019-04-23T18:28:58.288Z,98785.10
2019-04-23T18:31:44.606Z,98785.83
2019-04-23T18:34:26.528Z,98779.03
2019-04-23T18:36:38.783Z,98778.42
2019-04-23T18:39:26.243Z,98781.74
2019-04-23T18:42:04.004Z,98780.77
2019-04-23T18:44:35.020Z,98779.94
2019-04-23T18:47:00.486Z,98779.94
2019-04-23T18:52:14.604Z,98768.41
2019-04-23T18:54:40.497Z,98773.94
2019-04-23T18:57:13.037Z,98773.94
2019-04-23T19:00:03.337Z,98777.01
2019-04-23T19:03:11.544Z,98777.01
2019-04-23T19:06:10.533Z,98779.72
2019-04-23T19:09:00.595Z,98784.27
2019-04-23T19:11:35.658Z,98780.91
2019-04-23T19:14:03.184Z,98773.25
2019-04-23T19:16:53.447Z,98773.25
2019-04-23T19:19:20.404Z,98780.19
2019-04-23T19:24:28.389Z,98776.73
2019-04-23T19:28:09.204Z,98776.73
2019-04-23T19:33:41.913Z,98760.03
2019-04-23T19:36:13.807Z,98760.03
2019-04-23T19:41:47.555Z,98765.63
2019-04-23T19:43:56.236Z,98778.34
2019-04-23T19:46:36.936Z,98775.75
2019-04-23T19:49:07.211Z,98770.44
2019-04-23T19:51:39.770Z,98770.44
2019-04-23T19:56:47.256Z,98773.41
2019-04-23T19:59:15.427Z,98775.92
2019-04-23T20:01:49.744Z,98775.34
2019-04-23T20:04:23.446Z,98773.61
2019-04-23T20:09:47.884Z,98769.98
2019-04-23T20:14:42.158Z,98780.81
2019-04-23T20:17:34.097Z,98783.55
2019-04-23T20:19:48.564Z,98776.80
2019-04-23T20:22:33.961Z,98774.36
2019-04-23T20:25:20.926Z,98766.98
2019-04-23T20:27:39.237Z,98749.20
2019-04-23T20:36:10.589Z,98754.45
2019-04-23T20:41:21.421Z,98763.41
2019-04-23T20:43:57.640Z,98759.84
2019-04-23T20:46:24.876Z,98754.98
2019-04-23T20:51:36.351Z,98752.05
2019-04-23T20:56:42.482Z,98747.60
2019-04-23T20:59:12.300Z,98748.31
2019-04-23T21:02:15.279Z,98748.31
2019-04-23T21:04:47.479Z,98740.25
2019-04-23T21:07:17.602Z,98743.27
2019-04-23T21:10:01.048Z,98740.70
2019-04-23T21:12:42.485Z,98740.30
2019-04-23T21:15:05.329Z,98739.50
2019-04-23T21:17:35.665Z,98739.50
2019-04-23T21:22:39.559Z,98738.98
2019-04-23T21:25:09.448Z,98745.39
2019-04-23T21:27:55.348Z,98737.00
2019-04-23T21:31:02.194Z,98737.00
2019-04-23T21:33:24.561Z,98736.17
2019-04-23T21:36:22.366Z,98741.00
2019-04-23T21:39:23.080Z,98741.22
2019-04-23T21:41:58.032Z,98750.12
2019-04-23T21:47:07.750Z,98749.61
2019-04-23T21:49:47.711Z,98754.18
2019-04-23T21:54:47.154Z,98757.23
2019-04-23T21:57:16.897Z,98750.13
2019-04-23T21:59:55.664Z,98744.37
2019-04-23T22:02:27.709Z,98746.09
2019-04-23T22:05:19.442Z,98749.02
2019-04-23T22:07:41.998Z,98743.89
2019-04-23T22:10:02.712Z,98747.14
2019-04-23T22:12:46.944Z,98747.14
2019-04-23T22:15:13.303Z,98745.47
2019-04-23T22:17:46.283Z,98747.27
2019-04-23T22:25:39.250Z,98756.72
2019-04-23T22:28:00.745Z,98761.02
2019-04-23T22:30:38.612Z,98759.80
2019-04-23T22:33:09.856Z,98762.47
2019-04-23T22:35:48.314Z,98762.47
2019-04-23T22:38:20.759Z,98767.55
2019-04-23T22:40:58.170Z,98775.91
2019-04-23T22:43:38.165Z,98775.91
2019-04-23T22:48:46.154Z,98784.73
2019-04-23T22:51:21.076Z,98784.73
2019-04-23T22:53:53.211Z,98786.75
2019-04-23T22:56:44.269Z,98786.75
2019-04-23T22:59:18.606Z,98785.20
2019-04-23T23:01:43.138Z,98787.56
2019-04-23T23:09:34.257Z,98792.28
2019-04-23T23:14:27.937Z,98787.28
2019-04-23T23:17:02.249Z,98782.48
2019-04-23T23:22:44.605Z,98786.30
2019-04-23T23:24:56.446Z,98781.78
2019-04-23T23:27:54.322Z,98785.30
2019-04-23T23:30:26.697Z,98788.25
2019-04-23T23:35:28.416Z,98788.23
2019-04-23T23:38:08.305Z,98787.23
2019-04-23T23:40:47.591Z,98782.03
2019-04-23T23:43:23.386Z,98782.39
2019-04-23T23:51:01.544Z,98801.64
2019-04-23T23:53:34.548Z,98799.30
2019-04-23T23:58:40.750Z,98806.11
